Time;durP1;ratioP1;P1;durP2;ratioP2;P2;SDS_P1;SDS_P2;PMS_P1;PMS_P2;Temp;Humidity;BMP_temperature;BMP_pressure;BME280_temperature;BME280_humidity;BME280_pressure;Samples;Min_cycle;Max_cycle;Signal;HPM_P1;HPM_P2
2022/02/24 00:18:59;;;;;;;22.08;10.75;;;128.90;2073.60;;;;;;6226133;22;20154;-86
2022/02/24 00:38:44;;;;;;;20.60;9.30;;;153.60;2073.60;;;;;;6251648;22;20051;-84
2022/02/24 00:41:11;;;;;;;19.35;9.63;;;153.60;2073.60;;;;;;6199600;23;20328;-86
2022/02/24 00:49:11;;;;;;;20.67;9.43;;;128.80;2073.60;;;;;;6252709;22;20328;-89
2022/02/24 00:57:24;;;;;;;18.55;8.48;;;128.80;2099.20;;;;;;6256310;22;20027;-90
2022/02/24 01:02:45;;;;;;;17.55;8.18;;;128.90;2073.60;;;;;;6254564;22;20098;-84
2022/02/24 01:17:12;;;;;;;;;;;128.70;2124.80;;;;;;6256919;22;20020;-89
2022/02/24 01:22:26;;;;;;;;;;;128.60;2124.80;;;;;;6261756;22;19943;-89
2022/02/24 01:33:18;;;;;;;;;;;128.60;2124.80;;;;;;6258649;22;19919;-88
2022/02/24 01:41:29;;;;;;;;;;;128.80;2252.80;;;;;;6281301;22;19964;-89
2022/02/24 01:43:57;;;;;;;;;;;128.80;2073.60;;;;;;6256383;22;20262;-85
2022/02/24 02:00:33;;;;;;;;;;;128.80;2124.80;;;;;;6252665;22;19911;-90
2022/02/24 02:03:00;;;;;;;;;;;128.70;2124.80;;;;;;6200256;23;20255;-91
2022/02/24 02:25:22;;;;;;;;;;;128.60;2150.40;;;;;;6214919;23;19950;-91
2022/02/24 06:01:11;;;;;;;;;;;76.80;2227.20;;;;;;6269219;22;19930;-83
2022/02/24 06:19:00;;;;;;;;;;;76.80;2227.20;;;;;;6255451;22;19959;-79
2022/02/24 06:44:14;;;;;;;;;;;77.00;2227.20;;;;;;6267032;22;19920;-83
2022/02/24 06:56:15;;;;;;;;;;;77.20;2227.20;;;;;;6276414;22;19946;-82
2022/02/24 07:08:01;;;;;;;;;;;77.30;2227.20;;;;;;6265836;23;19918;-78
2022/02/24 07:10:27;;;;;;;;;;;77.70;2227.20;;;;;;6237916;23;19907;-78
2022/02/24 07:12:53;;;;;;;;;;;77.50;2227.20;;;;;;6241411;23;19895;-80
2022/02/24 07:15:20;;;;;;;;;;;77.50;2227.20;;;;;;6239911;23;19947;-79
2022/02/24 07:17:47;;;;;;;;;;;77.50;2227.20;;;;;;6239819;23;19902;-78
2022/02/24 07:20:14;;;;;;;;;;;77.70;2227.20;;;;;;6243332;22;19915;-79
2022/02/24 07:22:41;;;;;;;;;;;102.40;2227.20;;;;;;6241280;23;19899;-79
2022/02/24 07:25:08;;;;;;;;;;;103.10;2227.20;;;;;;6239008;23;19903;-78
2022/02/24 07:27:35;;;;;;;;;;;102.40;2227.20;;;;;;6238256;23;19920;-78
2022/02/24 07:30:01;;;;;;;;;;;102.60;2227.20;;;;;;6267537;23;19899;-78
2022/02/24 07:32:28;;;;;;;;;;;102.60;2227.20;;;;;;6239431;23;19896;-78
2022/02/24 07:34:56;;;;;;;;;;;103.20;2227.20;;;;;;6244407;23;19903;-80
2022/02/24 07:37:23;;;;;;;;;;;102.90;2227.20;;;;;;6265611;23;19915;-78
2022/02/24 07:39:50;;;;;;;;;;;102.90;2227.20;;;;;;6243941;23;19939;-79
2022/02/24 07:42:18;;;;;;;;;;;103.10;2227.20;;;;;;6270957;23;19896;-78
2022/02/24 07:45:07;;;;;;;;;;;;;;;;;;6210067;23;19904;-80
2022/02/24 07:50:40;;;;;;;;;;;;;;;;;;6154883;23;19919;-79
2022/02/24 07:55:43;;;;;;;;;;;;;;;;;;6278359;22;19983;-78
2022/02/24 08:00:54;;;;;;;;;;;;;;;;;;6273768;22;19918;-81
2022/02/24 08:03:20;;;;;;;;;;;153.80;2252.80;;;;;;6249802;22;19887;-80
2022/02/24 08:05:48;;;;;;;;;;;153.90;2252.80;;;;;;6247494;23;19891;-82
2022/02/24 08:08:18;;;;;;;;;;;;;;;;;;6248453;23;19900;-82
2022/02/24 08:10:45;;;;;;;;;;;;;;;;;;6247154;23;19903;-82
2022/02/24 08:13:31;;;;;;;;;;;;;;;;;;6263406;23;19895;-85
2022/02/24 08:15:59;;;;;;;;;;;179.30;2252.80;;;;;;6260169;23;20208;-82
2022/02/24 08:18:28;;;;;;;;;;;179.40;2252.80;;;;;;6230212;23;19896;-86
2022/02/24 08:24:05;;;;;;;;;;;;;;;;;;6250068;23;19906;-85
2022/02/24 08:26:31;;;;;;;;;;;205.10;2150.40;;;;;;6220677;23;20197;-84
2022/02/24 08:28:57;;;;;;;;;;;;;;;;;;6220409;23;19937;-85
2022/02/24 08:31:26;;;;;;;;;;;;;;;;;;6220549;23;20323;-84
2022/02/24 08:33:54;;;;;;;;;;;;;;;;;;6220678;23;20253;-83
2022/02/24 08:36:22;;;;;;;;;;;231.20;1894.40;;;;;;6246946;23;20281;-83
2022/02/24 08:38:48;;;;;;;;;;;256.30;1817.60;;;;;;6220697;23;19896;-83
2022/02/24 08:41:13;;;;;;;;;;;256.90;1792.00;;;;;;6220624;23;19911;-84
2022/02/24 08:43:39;;;;;;;;;;;;;;;;;;6219512;23;19896;-84
2022/02/24 08:46:05;;;;;;;;;;;307.30;1715.20;;;;;;6247637;23;20220;-83
2022/02/24 08:48:31;;;;;;;;;;;;;;;;;;6220059;23;19896;-82
2022/02/24 08:50:57;;;;;;;;;;;333.10;1664.00;;;;;;6219897;23;20267;-80
2022/02/24 08:53:24;;;;;;;;;;;333.70;1587.20;;;;;;6219845;23;19902;-81
2022/02/24 08:55:51;;;;;;;;;;;359.00;1510.40;;;;;;6219174;23;20220;-81
2022/02/24 08:58:17;;;;;;;;;;;384.40;1433.60;;;;;;6221199;23;19895;-81
2022/02/24 09:00:47;;;;;;;;;;;409.80;1408.00;;;;;;6221726;23;19908;-82
2022/02/24 09:03:13;;;;;;;;;;;;;;;;;;6249411;23;20256;-80
2022/02/24 09:05:39;;;;;;;;;;;435.60;1305.60;;;;;;6222066;23;20217;-81
2022/02/24 09:08:07;;;;;;;;;;;460.90;1331.20;;;;;;6249235;23;19902;-80
2022/02/24 09:10:34;;;;;;;;;;;461.50;1177.60;;;;;;6248674;23;19918;-81
2022/02/24 09:13:02;;;;;;;;;;;486.70;1152.00;;;;;;6221928;23;20213;-82
2022/02/24 09:15:35;;;;;;;;;;;486.60;1126.40;;;;;;6221596;23;20209;-82
2022/02/24 09:18:03;;;;;;;;;;;487.00;1100.80;;;;;;6221388;23;19895;-81
2022/02/24 09:20:29;;;;;;;;;;;487.20;1100.80;;;;;;6220999;23;20320;-81
2022/02/24 09:22:56;;;;;;;;;;;;;;;;;;6221765;23;20252;-81
2022/02/24 09:25:23;;;;;;;;;;;538.00;1024.00;;;;;;6221742;23;20223;-82
2022/02/24 09:27:51;;;;;;;;;;;537.80;972.80;;;;;;6221585;23;20263;-81
2022/02/24 09:30:18;;;;;;;;;;;538.20;1049.60;;;;;;6248500;23;19895;-82
2022/02/24 09:32:47;;;;;;;;;;;538.30;947.20;;;;;;6221854;23;19896;-82
2022/02/24 09:35:15;;;;;;;;;;;538.20;972.80;;;;;;6221736;23;19902;-81
2022/02/24 09:37:41;;;;;;;;;;;538.50;998.40;;;;;;6221823;23;20319;-81
2022/02/24 09:40:09;;;;;;;;;;;563.80;998.40;;;;;;6221318;23;20209;-81
2022/02/24 09:42:36;;;;;;;;;;;;;;;;;;6221537;23;20256;-81
2022/02/24 09:45:03;;;;;;;;;;;589.20;921.60;;;;;;6221469;23;20212;-81
2022/02/24 09:47:29;;;;;;;;;;;;;;;;;;6221753;23;20320;-81
2022/02/24 09:49:57;;;;;;;;;;;589.70;870.40;;;;;;6221650;23;20253;-81
2022/02/24 09:52:22;;;;;;;;;;;589.30;870.40;;;;;;6221441;23;20216;-81
2022/02/24 09:54:49;;;;;;;;;;;614.50;870.40;;;;;;6248427;23;19896;-81
2022/02/24 09:57:15;;;;;;;;;;;614.90;844.80;;;;;;6194802;23;20249;-81
2022/02/24 09:59:41;;;;;;;;;;;614.80;844.80;;;;;;6191581;23;19903;-82
2022/02/24 10:02:09;;;;;;;;;;;615.20;819.20;;;;;;6218022;23;20248;-81
2022/02/24 10:04:35;;;;;;;;;;;;;;;;;;6191974;23;20308;-81
2022/02/24 10:07:01;;;;;;;;;;;640.60;742.40;;;;;;6191310;23;20317;-81
2022/02/24 10:09:33;;;;;;;;;;;640.20;742.40;;;;;;6191014;23;19949;-81
2022/02/24 10:12:10;;;;;;;;;;;640.70;742.40;;;;;;6217682;23;20258;-82
2022/02/24 10:14:39;;;;;;;;;;;666.10;768.00;;;;;;6191445;23;20225;-82
2022/02/24 10:17:07;;;;;;;;;;;691.40;742.40;;;;;;6191264;23;20325;-82
2022/02/24 10:19:40;;;;;;;;;;;692.00;691.20;;;;;;6191616;23;20324;-81
2022/02/24 10:22:09;;;;;;;;;;;717.10;742.40;;;;;;6217870;23;20202;-81
2022/02/24 10:24:36;;;;;;;;;;;717.20;691.20;;;;;;6192460;23;19899;-82
2022/02/24 10:27:19;;;;;;;;;;;717.50;640.00;;;;;;6191473;23;20219;-82
2022/02/24 10:30:05;;;;;;;;;;;717.20;665.60;;;;;;6190864;23;20209;-82
2022/02/24 10:32:31;;;;;;;;;;;;;;;;;;6189445;23;20305;-81
2022/02/24 10:35:23;;;;;;;;;;;742.70;665.60;;;;;;6190870;23;20320;-80
2022/02/24 10:38:00;;;;;;;;;;;742.90;640.00;;;;;;6096372;23;20264;-82
2022/02/24 10:40:27;;;;;;;;;;;742.60;614.40;;;;;;6095792;23;19901;-81
2022/02/24 10:46:06;;;;;;;;;;;717.50;614.40;;;;;;6096636;23;19975;-82
2022/02/24 10:48:33;;;;;;;;;;;;;;;;;;6096528;23;20246;-80
2022/02/24 10:51:01;;;;;;;;;;;;;;;;;;6096193;23;20354;-81
2022/02/24 10:53:34;;;;;;;;;;;665.60;691.20;;;;;;6096028;23;20299;-81
2022/02/24 10:56:00;;;;;;;;;;;640.60;742.40;;;;;;6106779;23;19908;-81
2022/02/24 10:58:27;;;;;;;;;;;640.50;716.80;;;;;;6125604;23;20222;-81
2022/02/24 11:01:06;;;;;;;;;;;640.10;691.20;;;;;;6125585;23;19897;-81
2022/02/24 11:03:32;;;;;;;;;;;666.10;665.60;;;;;;6100781;23;20235;-81
2022/02/24 11:05:59;;;;;;;;;;;615.30;716.80;;;;;;6100945;23;20214;-82
2022/02/24 11:08:28;;;;;;;;;;;640.80;640.00;;;;;;6101039;23;20297;-80
2022/02/24 11:10:56;;;;;;;;;;;589.60;742.40;;;;;;6100951;23;20290;-81
2022/02/24 11:13:22;;;;;;;;;;;563.50;742.40;;;;;;6101020;23;20310;-81
2022/02/24 11:15:48;;;;;;;;;;;538.10;768.00;;;;;;6247373;23;20259;-81
2022/02/24 11:18:14;;;;;;;;;;;;;;;;;;6247743;23;19900;-81
2022/02/24 11:20:40;;;;;;;;;;;512.00;793.60;;;;;;6247021;23;20224;-80
2022/02/24 11:23:06;;;;;;;;;;;460.90;921.60;;;;;;6220230;23;20213;-80
2022/02/24 11:25:34;;;;;;;;;;;436.00;896.00;;;;;;6247385;23;20238;-80
2022/02/24 11:28:02;;;;;;;;;;;461.00;870.40;;;;;;6221360;23;20175;-79
2022/02/24 11:30:30;;;;;;;;;;;460.80;921.60;;;;;;6247095;23;20240;-80
2022/02/24 11:32:56;;;;;;;;;;;460.90;921.60;;;;;;6220302;23;19955;-80
2022/02/24 11:35:22;;;;;;;;;;;435.40;947.20;;;;;;6247304;23;19903;-80
2022/02/24 11:37:50;;;;;;;;;;;410.30;1024.00;;;;;;6220340;23;20285;-81
2022/02/24 11:40:21;;;;;;;;;;;435.20;921.60;;;;;;6247125;23;20297;-80
2022/02/24 11:43:03;;;;;;;;;;;435.60;921.60;;;;;;6220410;23;20301;-82
2022/02/24 11:45:33;;;;;;;;;;;435.20;921.60;;;;;;6220366;23;20267;-84
2022/02/24 11:48:16;;;;;;;;;;;435.20;947.20;;;;;;6221023;23;20201;-81
2022/02/24 11:50:43;;;;;;;;;;;435.20;921.60;;;;;;6220535;23;20268;-81
2022/02/24 11:53:28;;;;;;;;;;;435.40;921.60;;;;;;6247169;23;20297;-82
2022/02/24 11:55:54;;;;;;;;;;;435.60;972.80;;;;;;6247020;23;20228;-83
2022/02/24 11:58:29;;;;;;;;;;;435.70;921.60;;;;;;6220326;23;19895;-82
2022/02/24 12:01:10;;;;;;;;;;;435.60;1228.80;;;;;;6220323;23;20187;-82
2022/02/24 12:03:45;;;;;;;;;;;435.20;1126.40;;;;;;6247324;23;20320;-81
2022/02/24 12:06:16;;;;;;;;;;;410.50;1024.00;;;;;;6220260;23;20297;-82
2022/02/24 12:09:00;;;;;;;;;;;435.20;972.80;;;;;;6220198;23;20297;-81
2022/02/24 12:11:30;;;;;;;;;;;409.80;1024.00;;;;;;6220352;23;20275;-81
2022/02/24 12:13:56;;;;;;;;;;;410.00;998.40;;;;;;6221034;23;20204;-81
2022/02/24 12:16:26;;;;;;;;;;;410.50;870.40;;;;;;6220389;23;20309;-82
2022/02/24 12:18:53;;;;;;;;;;;435.70;921.60;;;;;;6220369;23;20308;-82
2022/02/24 12:21:26;;;;;;;;;;;461.40;870.40;;;;;;6220482;23;20293;-81
2022/02/24 12:23:52;;;;;;;;;;;;;;;;;;6220318;23;20362;-81
2022/02/24 12:26:19;;;;;;;;;;;;;;;;;;6247554;23;20240;-81
2022/02/24 12:28:45;;;;;;;;;;;589.70;742.40;;;;;;6220107;23;20229;-81
2022/02/24 12:31:20;;;;;;;;;;;640.00;691.20;;;;;;6247377;23;19903;-81
2022/02/24 12:33:46;;;;;;;;;;;;;;;;;;6220108;23;19930;-81
2022/02/24 12:36:12;;;;;;;;;;;743.30;563.20;;;;;;6220101;23;20250;-79
2022/02/24 12:38:38;;;;;;;;;;;;;;;;;;6220017;23;19934;-80
2022/02/24 12:41:04;;;;;;;;;;;743.10;563.20;;;;;;6220074;23;20221;-80
2022/02/24 12:43:30;;;;;;;;;;;743.10;563.20;;;;;;6247315;23;19896;-80
2022/02/24 12:45:56;;;;;;;;;;;691.20;588.80;;;;;;6246927;23;19931;-79
2022/02/24 12:48:22;;;;;;;;;;;614.90;691.20;;;;;;6246988;23;20312;-80
2022/02/24 12:50:50;;;;;;;;;;;589.70;742.40;;;;;;6220028;23;19903;-79
2022/02/24 12:53:16;;;;;;;;;;;;;;;;;;6247107;23;20232;-83
2022/02/24 12:55:42;;;;;;;;;;;;;;;;;;6213262;23;20264;-81
2022/02/24 12:58:09;;;;;;;;;;;640.60;640.00;;;;;;6191048;23;20197;-81
2022/02/24 13:00:36;;;;;;;;;;;614.90;691.20;;;;;;6190516;23;20274;-83
2022/02/24 13:03:03;;;;;;;;;;;640.30;665.60;;;;;;6190393;23;20213;-83
2022/02/24 13:05:32;;;;;;;;;;;640.60;640.00;;;;;;6190290;23;20264;-79
2022/02/24 13:10:55;;;;;;;;;;;691.50;742.40;;;;;;6217432;23;20213;-83
2022/02/24 13:13:23;;;;;;;;;;;794.10;537.60;;;;;;6190362;23;20233;-81
2022/02/24 13:15:48;;;;;;;;;;;819.20;537.60;;;;;;6190432;23;20245;-83
2022/02/24 13:18:16;;;;;;;;;;;768.10;512.00;;;;;;6190251;23;19900;-82
2022/02/24 13:20:42;;;;;;;;;;;819.20;512.00;;;;;;6216723;23;20198;-84
2022/02/24 13:23:08;;;;;;;;;;;768.70;512.00;;;;;;6190190;23;19970;-82
2022/02/24 13:25:35;;;;;;;;;;;794.30;512.00;;;;;;6190729;23;20209;-84
2022/02/24 13:28:01;;;;;;;;;;;870.80;512.00;;;;;;6190282;23;20356;-83
2022/02/24 13:30:31;;;;;;;;;;;922.50;435.20;;;;;;6189992;23;20256;-82
2022/02/24 13:33:06;;;;;;;;;;;896.00;435.20;;;;;;6190064;23;20356;-83
2022/02/24 13:35:39;;;;;;;;;;;871.20;460.80;;;;;;6190320;23;20284;-84
2022/02/24 13:38:06;;;;;;;;;;;871.20;435.20;;;;;;6190149;23;20254;-84
2022/02/24 13:40:32;;;;;;;;;;;896.30;460.80;;;;;;6189770;23;20209;-82
2022/02/24 13:43:03;;;;;;;;;;;973.60;384.00;;;;;;6189975;23;20297;-82
2022/02/24 13:45:30;;;;;;;;;;;998.90;358.40;;;;;;6217792;23;20205;-83
2022/02/24 13:48:02;;;;;;;;;;;1075.30;358.40;;;;;;6191707;23;20285;-83
2022/02/24 13:50:38;;;;;;;;;;;1075.50;358.40;;;;;;6191547;23;20212;-83
2022/02/24 13:53:04;;;;;;;;;;;1101.70;384.00;;;;;;6191720;23;20267;-83
2022/02/24 13:55:31;;;;;;;;;;;1101.50;384.00;;;;;;6196063;23;19903;-85
2022/02/24 13:58:01;;;;;;;;;;;1049.80;384.00;;;;;;6221612;23;20320;-81
2022/02/24 14:00:28;;;;;;;;;;;998.90;358.40;;;;;;6222227;23;20200;-82
2022/02/24 14:02:55;;;;;;;;;;;1050.20;358.40;;;;;;6221100;23;20323;-81
2022/02/24 14:05:21;;;;;;;;;;;1076.00;358.40;;;;;;6221307;23;20190;-80
2022/02/24 14:07:48;;;;;;;;;;;1101.70;384.00;;;;;;6221038;23;20212;-79
2022/02/24 14:10:14;;;;;;;;;;;1127.20;409.60;;;;;;6248195;23;20231;-80
2022/02/24 14:12:42;;;;;;;;;;;1126.90;409.60;;;;;;6221298;23;20193;-79
2022/02/24 14:15:08;;;;;;;;;;;1101.10;384.00;;;;;;6221037;23;20289;-79
2022/02/24 14:17:36;;;;;;;;;;;1050.10;358.40;;;;;;6221378;23;20289;-81
2022/02/24 14:20:10;;;;;;;;;;;1049.80;358.40;;;;;;6221134;23;20213;-80
2022/02/24 14:22:37;;;;;;;;;;;1050.50;358.40;;;;;;6221212;23;20251;-81
2022/02/24 14:25:03;;;;;;;;;;;1100.80;384.00;;;;;;6248417;23;20204;-79
2022/02/24 14:27:29;;;;;;;;;;;1101.60;384.00;;;;;;6221038;23;20220;-81
2022/02/24 14:29:55;;;;;;;;;;;1075.70;358.40;;;;;;6221049;23;19896;-81
2022/02/24 14:32:20;;;;;;;;;;;896.00;384.00;;;;;;6248032;23;19904;-78
2022/02/24 14:34:46;;;;;;;;;;;768.90;435.20;;;;;;6221063;23;19986;-81
2022/02/24 14:37:12;;;;;;;;;;;691.80;486.40;;;;;;6221001;23;19896;-80
2022/02/24 14:39:38;;;;;;;;;;;640.50;537.60;;;;;;6247378;23;19895;-80
2022/02/24 14:42:10;;;;;;;;;;;614.50;588.80;;;;;;6247769;23;19895;-80
2022/02/24 14:44:39;;;;;;;;;;;589.10;665.60;;;;;;6248198;23;19931;-82
2022/02/24 14:47:04;;;;;;;;;;;563.70;640.00;;;;;;6221108;23;19903;-81
2022/02/24 14:49:30;;;;;;;;;;;563.30;665.60;;;;;;6221128;23;19899;-82
2022/02/24 14:51:56;;;;;;;;;;;538.00;691.20;;;;;;6247810;23;19907;-82
2022/02/24 14:54:22;;;;;;;;;;;512.50;716.80;;;;;;6220904;23;19895;-82
2022/02/24 14:56:48;;;;;;;;;;;512.20;716.80;;;;;;6247642;23;20282;-83
2022/02/24 14:59:14;;;;;;;;;;;512.10;742.40;;;;;;6220795;23;19927;-82
2022/02/24 15:01:40;;;;;;;;;;;487.20;716.80;;;;;;6221332;23;19895;-83
2022/02/24 15:04:07;;;;;;;;;;;486.60;844.80;;;;;;6221047;23;19982;-83
2022/02/24 15:06:32;;;;;;;;;;;486.50;793.60;;;;;;6247836;23;19927;-82
2022/02/24 15:08:58;;;;;;;;;;;486.40;793.60;;;;;;6247882;23;19902;-83
2022/02/24 15:11:24;;;;;;;;;;;461.70;793.60;;;;;;6248053;23;19964;-87
2022/02/24 15:13:51;;;;;;;;;;;461.60;844.80;;;;;;6221296;23;20235;-83
2022/02/24 15:16:17;;;;;;;;;;;461.30;844.80;;;;;;6248233;23;20284;-86
2022/02/24 15:18:43;;;;;;;;;;;461.20;870.40;;;;;;6221546;23;20255;-85
2022/02/24 15:21:10;;;;;;;;;;;460.90;844.80;;;;;;6222736;23;20251;-86
2022/02/24 15:23:36;;;;;;;;;;;436.00;844.80;;;;;;6222148;23;20232;-86
2022/02/24 15:26:04;;;;;;;;;;;435.80;844.80;;;;;;6222052;23;20256;-85
2022/02/24 15:28:30;;;;;;;;;;;435.80;844.80;;;;;;6221268;23;20185;-84
2022/02/24 15:30:57;;;;;;;;;;;435.50;870.40;;;;;;6221084;23;20071;-84
2022/02/24 15:33:25;;;;;;;;;;;;;;;;;;6248916;23;20297;-86
2022/02/24 15:35:51;;;;;;;;;;;;;;;;;;6221035;23;20212;-84
2022/02/24 15:38:17;;;;;;;;;;;435.20;921.60;;;;;;6248153;23;19895;-85
2022/02/24 15:40:43;;;;;;;;;;;;;;;;;;6221317;23;19953;-85
2022/02/24 15:43:09;;;;;;;;;;;410.50;947.20;;;;;;6220993;23;20224;-83
2022/02/24 15:45:35;;;;;;;;;;;410.20;947.20;;;;;;6221310;23;19896;-84
2022/02/24 15:48:01;;;;;;;;;;;;;;;;;;6221432;23;19895;-84
2022/02/24 15:50:27;;;;;;;;;;;;;;;;;;6220841;23;20305;-85
2022/02/24 15:52:53;;;;;;;;;;;410.00;1024.00;;;;;;6247842;23;20213;-85
2022/02/24 15:55:19;;;;;;;;;;;409.70;1024.00;;;;;;6220655;23;20300;-85
2022/02/24 15:57:50;;;;;;;;;;;384.90;1024.00;;;;;;6220826;23;19896;-83
2022/02/24 16:00:19;;;;;;;;;;;;;;;;;;6247827;23;19899;-82
2022/02/24 16:02:45;;;;;;;;;;;384.70;1075.20;;;;;;6221468;23;20252;-83
2022/02/24 16:05:11;;;;;;;;;;;384.50;1075.20;;;;;;6220215;23;19896;-85
2022/02/24 16:07:37;;;;;;;;;;;;;;;;;;6220635;23;19900;-81
2022/02/24 16:10:03;;;;;;;;;;;384.10;1075.20;;;;;;6220435;23;20216;-83
2022/02/24 16:12:29;;;;;;;;;;;359.30;1075.20;;;;;;6220500;23;20356;-82
2022/02/24 16:14:55;;;;;;;;;;;359.10;1254.40;;;;;;6247686;23;19930;-83
2022/02/24 16:17:22;;;;;;;;;;;359.00;1152.00;;;;;;6220795;23;19902;-86
2022/02/24 16:19:49;;;;;;;;;;;;;;;;;;6220701;23;20251;-86
2022/02/24 16:22:14;;;;;;;;;;;358.80;1203.20;;;;;;6247407;23;20256;-82
2022/02/24 16:24:42;;;;;;;;;;;358.60;1203.20;;;;;;6247639;23;19896;-85
2022/02/24 16:27:08;;;;;;;;;;;358.50;1177.60;;;;;;6220798;23;20320;-83
2022/02/24 16:29:34;;;;;;;;;;;358.40;1203.20;;;;;;6220565;23;20186;-85
2022/02/24 16:32:00;;;;;;;;;;;333.60;1203.20;;;;;;6247245;23;20328;-85
2022/02/24 16:34:27;;;;;;;;;;;;;;;;;;6220764;23;20285;-85
2022/02/24 16:36:53;;;;;;;;;;;333.30;1228.80;;;;;;6220746;23;20263;-86
2022/02/24 16:39:20;;;;;;;;;;;333.20;1228.80;;;;;;6220751;23;20190;-86
2022/02/24 16:41:45;;;;;;;;;;;333.20;1228.80;;;;;;6220537;23;20289;-85
2022/02/24 16:44:11;;;;;;;;;;;333.20;1228.80;;;;;;6220562;23;19903;-85
2022/02/24 16:46:37;;;;;;;;;;;;;;;;;;6247648;23;20269;-86
2022/02/24 16:49:03;;;;;;;;;;;333.00;1254.40;;;;;;6220870;23;20236;-85
2022/02/24 16:51:29;;;;;;;;;;;332.90;1280.00;;;;;;6220373;23;19950;-86
2022/02/24 16:53:56;;;;;;;;;;;;;;;;;;6220444;23;20266;-86
2022/02/24 16:56:22;;;;;;;;;;;;;;;;;;6205212;23;20233;-86
2022/02/24 16:58:48;;;;;;;;;;;;;;;;;;6190501;23;20198;-86
2022/02/24 17:01:15;;;;;;;;;;;;;;;;;;6190827;23;20340;-86
2022/02/24 17:03:43;;;;;;;;;;;;;;;;;;6190333;23;20194;-86
2022/02/24 17:06:12;;;;;;;;;;;307.90;1280.00;;;;;;6190146;23;19900;-85
2022/02/24 17:08:37;;;;;;;;;;;307.70;1280.00;;;;;;6190239;23;20212;-85
2022/02/24 17:11:06;;;;;;;;;;;307.60;1305.60;;;;;;6190079;23;20327;-86
2022/02/24 17:13:34;;;;;;;;;;;307.50;1305.60;;;;;;6190350;23;20279;-87
2022/02/24 17:16:03;;;;;;;;;;;307.40;1305.60;;;;;;6190954;23;19902;-86
2022/02/24 17:18:29;;;;;;;;;;;307.30;1331.20;;;;;;6190734;23;19896;-87
2022/02/24 17:20:57;;;;;;;;;;;307.20;1305.60;;;;;;6219047;23;20237;-85
2022/02/24 17:23:24;;;;;;;;;;;307.20;1331.20;;;;;;6192735;23;20269;-87
2022/02/24 17:25:52;;;;;;;;;;;282.50;1331.20;;;;;;6192664;23;19895;-85
2022/02/24 17:28:24;;;;;;;;;;;282.30;1331.20;;;;;;6192927;23;19903;-87
2022/02/24 17:31:07;;;;;;;;;;;282.30;1331.20;;;;;;6192497;23;20294;-87
2022/02/24 17:33:35;;;;;;;;;;;282.30;1356.80;;;;;;6192199;23;19896;-87
2022/02/24 17:36:04;;;;;;;;;;;282.10;1356.80;;;;;;6192300;23;20217;-87
2022/02/24 17:38:30;;;;;;;;;;;282.10;1356.80;;;;;;6192149;23;20248;-86
2022/02/24 17:41:02;;;;;;;;;;;281.90;1356.80;;;;;;6192205;23;20283;-86
2022/02/24 17:43:30;;;;;;;;;;;281.90;1356.80;;;;;;6191963;23;20182;-93
2022/02/24 17:45:58;;;;;;;;;;;281.90;1356.80;;;;;;6218315;23;20209;-85
2022/02/24 17:48:24;;;;;;;;;;;281.70;1382.40;;;;;;6218445;23;20209;-85
2022/02/24 17:50:50;;;;;;;;;;;281.80;1356.80;;;;;;6195824;23;19904;-96
2022/02/24 17:53:17;;;;;;;;;;;281.70;1356.80;;;;;;6193721;23;19986;-92
2022/02/24 17:55:43;;;;;;;;;;;281.60;1382.40;;;;;;6201021;23;20222;-93
2022/02/24 17:58:09;;;;;;;;;;;256.90;1382.40;;;;;;6254682;23;20256;-94
2022/02/24 18:00:35;;;;;;;;;;;256.90;1382.40;;;;;;6249087;23;20205;-91
2022/02/24 18:03:02;;;;;;;;;;;256.80;1382.40;;;;;;6226277;23;20190;-95
2022/02/24 18:05:28;;;;;;;;;;;256.70;1408.00;;;;;;6224758;23;20212;-95
2022/02/24 18:07:54;;;;;;;;;;;256.70;1382.40;;;;;;6226799;23;20282;-96
2022/02/24 18:10:20;;;;;;;;;;;256.60;1408.00;;;;;;6223682;23;19896;-92
2022/02/24 18:12:46;;;;;;;;;;;256.50;1382.40;;;;;;6222360;23;19906;-94
2022/02/24 18:15:12;;;;;;;;;;;256.40;1408.00;;;;;;6222122;23;19902;-93
2022/02/24 18:17:38;;;;;;;;;;;256.40;1408.00;;;;;;6222910;23;20293;-94
2022/02/24 18:20:05;;;;;;;;;;;256.30;1408.00;;;;;;6222452;23;20220;-94
2022/02/24 18:22:31;;;;;;;;;;;256.30;1408.00;;;;;;6223425;23;20186;-92
2022/02/24 18:24:57;;;;;;;;;;;256.10;1433.60;;;;;;6222140;23;19903;-89
2022/02/24 18:27:23;;;;;;;;;;;256.10;1408.00;;;;;;6197059;23;19938;-91
2022/02/24 18:29:49;;;;;;;;;;;256.10;1408.00;;;;;;6221643;23;19896;-86
2022/02/24 18:32:15;;;;;;;;;;;231.30;1408.00;;;;;;6248923;23;20252;-91
2022/02/24 18:34:41;;;;;;;;;;;231.30;1459.20;;;;;;6248807;23;20289;-93
2022/02/24 18:37:07;;;;;;;;;;;231.30;1433.60;;;;;;6222290;23;19907;-92
2022/02/24 18:39:34;;;;;;;;;;;231.30;1433.60;;;;;;6222788;23;19902;-88
2022/02/24 18:42:00;;;;;;;;;;;231.30;1433.60;;;;;;6221868;23;20190;-88
2022/02/24 18:44:26;;;;;;;;;;;231.20;1459.20;;;;;;6222497;23;19900;-91
2022/02/24 18:46:52;;;;;;;;;;;231.30;1459.20;;;;;;6221856;23;20319;-92
2022/02/24 18:49:19;;;;;;;;;;;231.00;1459.20;;;;;;6221790;23;20277;-90
2022/02/24 18:51:45;;;;;;;;;;;230.90;1484.80;;;;;;6221902;23;20202;-92
2022/02/24 18:54:10;;;;;;;;;;;230.90;1484.80;;;;;;6221747;23;19903;-92
2022/02/24 18:56:36;;;;;;;;;;;230.90;1510.40;;;;;;6221482;23;19982;-92
2022/02/24 18:59:02;;;;;;;;;;;230.80;1510.40;;;;;;6223240;23;19902;-92
2022/02/24 19:01:28;;;;;;;;;;;;;;;;;;6222696;23;19902;-92
2022/02/24 19:03:54;;;;;;;;;;;230.60;1536.00;;;;;;6222015;23;20251;-94
2022/02/24 19:06:20;;;;;;;;;;;230.60;1561.60;;;;;;6223816;23;20198;-93
2022/02/24 19:08:46;;;;;;;;;;;230.70;1561.60;;;;;;6221843;23;19906;-90
2022/02/24 19:11:13;;;;;;;;;;;230.60;1561.60;;;;;;6221502;23;20220;-89
2022/02/24 19:13:40;;;;;;;;;;;230.60;1587.20;;;;;;6221954;23;19895;-91
2022/02/24 19:16:06;;;;;;;;;;;230.60;1561.60;;;;;;6248327;23;20297;-85
2022/02/24 19:18:32;;;;;;;;;;;230.60;1587.20;;;;;;6221668;23;20356;-91
2022/02/24 19:20:58;;;;;;;;;;;230.60;1587.20;;;;;;6221652;23;19895;-88
2022/02/24 19:23:24;;;;;;;;;;;230.50;1612.80;;;;;;6221664;23;20219;-86
2022/02/24 19:25:53;;;;;;;;;;;230.50;1612.80;;;;;;6221652;23;19919;-92
2022/02/24 19:28:19;;;;;;;;;;;230.40;1612.80;;;;;;6222078;23;20204;-93
2022/02/24 19:30:45;;;;;;;;;;;230.40;1612.80;;;;;;6221264;23;20034;-91
2022/02/24 19:33:12;;;;;;;;;;;230.40;1612.80;;;;;;6222166;23;20307;-86
2022/02/24 19:35:46;;;;;;;;;;;230.40;1612.80;;;;;;6221789;23;20204;-92
2022/02/24 19:38:15;;;;;;;;;;;205.70;1638.40;;;;;;6221414;23;20213;-91
2022/02/24 19:40:41;;;;;;;;;;;230.60;1638.40;;;;;;6221987;23;20185;-91
2022/02/24 19:43:07;;;;;;;;;;;205.60;1638.40;;;;;;6220941;23;20217;-91
2022/02/24 19:45:34;;;;;;;;;;;205.60;1638.40;;;;;;6222129;23;20289;-91
2022/02/24 19:48:03;;;;;;;;;;;205.60;1638.40;;;;;;6221814;23;20351;-89
2022/02/24 19:50:30;;;;;;;;;;;205.50;1638.40;;;;;;6221005;23;20224;-87
2022/02/24 19:52:56;;;;;;;;;;;205.40;1664.00;;;;;;6248225;23;20275;-92
2022/02/24 19:55:22;;;;;;;;;;;205.40;1689.60;;;;;;6221049;23;20282;-89
2022/02/24 19:57:48;;;;;;;;;;;205.20;1689.60;;;;;;6220946;23;20375;-90
2022/02/24 20:00:15;;;;;;;;;;;205.30;1689.60;;;;;;6221445;23;19978;-94
2022/02/24 20:02:41;;;;;;;;;;;205.30;1689.60;;;;;;6221259;23;20281;-92
2022/02/24 20:05:07;;;;;;;;;;;205.30;1715.20;;;;;;6221388;23;20261;-86
2022/02/24 20:07:33;;;;;;;;;;;205.20;1715.20;;;;;;6221362;23;20351;-92
2022/02/24 20:09:59;;;;;;;;;;;205.10;1740.80;;;;;;6221243;23;19896;-90
2022/02/24 20:12:25;;;;;;;;;;;205.10;1715.20;;;;;;6221317;23;19908;-89
2022/02/24 20:14:51;;;;;;;;;;;205.00;1766.40;;;;;;6221372;23;20319;-89
2022/02/24 20:17:17;;;;;;;;;;;205.00;1740.80;;;;;;6220891;23;19906;-84
2022/02/24 20:19:43;;;;;;;;;;;204.90;1766.40;;;;;;6247850;23;19918;-86
2022/02/24 20:22:08;;;;;;;;;;;204.80;1766.40;;;;;;6221280;23;19899;-83
2022/02/24 20:24:34;;;;;;;;;;;180.10;1792.00;;;;;;6247679;23;19896;-91
2022/02/24 20:27:02;;;;;;;;;;;180.00;1817.60;;;;;;6221638;23;19895;-91
2022/02/24 20:29:28;;;;;;;;;;;180.10;1792.00;;;;;;6221108;23;20304;-84
2022/02/24 20:31:54;;;;;;;;;;;180.00;1817.60;;;;;;6247487;23;20209;-89
2022/02/24 20:34:20;;;;;;;;;;;179.90;1817.60;;;;;;6248093;23;19895;-91
2022/02/24 20:36:45;;;;;;;;;;;179.90;1792.00;;;;;;6221254;23;19895;-91
2022/02/24 20:39:14;;;;;;;;;;;179.90;1817.60;;;;;;6221062;23;19896;-83
2022/02/24 20:41:46;;;;;;;;;;;179.80;1817.60;;;;;;6221145;23;20316;-90
2022/02/24 20:44:12;;;;;;;;;;;179.70;1843.20;;;;;;6221352;23;19923;-84
2022/02/24 20:46:38;;;;;;;;;;;179.70;1817.60;;;;;;6247905;23;20220;-89